Spirit Lake, Iowa
Current Conditions -  °F | °C
As of 5:33 PM on Saturday 22 Nov 2014 (Local Time) from KMJQ Reporting Station
Haze Haze  
Wind Chill: 29°   Ceiling: Unl
Heat Index: 37°   Visibility: 5mi
Dew Point: 36°   Wind: 13mph
Humidity: 93%   Direction: 170°S
Pressure: 29.55"   Gusts: NA
Location:  43.42°N, 95.1°W
Report Text: KMJQ 222333Z AUTO 17011KT 5SM BR CLR 03/02 A2955 RMK AO2
Loading
Personal Weather Stations






























Interactive Weather Map New forecast layout! Learn more

10-Day Weather Forecast

Advertisements
Track Severe Weather on mobile